Time;durP1;ratioP1;P1;durP2;ratioP2;P2;SDS_P1;SDS_P2;PMS_P1;PMS_P2;Temp;Humidity;BMP_temperature;BMP_pressure;BME280_temperature;BME280_humidity;BME280_pressure;Samples;Min_cycle;Max_cycle;Signal;HPM_P1;HPM_P2
2023/04/25 00:02:22;;;;;;;10.13;5.18;;;;;;;14.61;37.49;99224.50;5104405;28;20036;-47
2023/04/25 00:04:48;;;;;;;13.57;5.15;;;;;;;14.33;37.36;99172.91;5088074;28;20036;-53
2023/04/25 00:07:14;;;;;;;13.07;5.47;;;;;;;14.56;37.53;99224.75;5070401;28;20442;-48
2023/04/25 00:09:41;;;;;;;9.00;4.65;;;;;;;14.61;37.70;99232.34;5088370;28;20036;-53
2023/04/25 00:12:07;;;;;;;16.67;5.30;;;;;;;14.60;37.68;99230.69;5088981;28;20035;-53
2023/04/25 00:14:34;;;;;;;12.65;4.97;;;;;;;14.65;37.87;99233.88;5088417;28;20419;-54
2023/04/25 00:17:00;;;;;;;13.80;4.65;;;;;;;14.60;37.91;99241.97;5086645;28;20043;-52
2023/04/25 00:19:28;;;;;;;14.93;6.28;;;;;;;14.57;38.03;99239.53;5087557;28;20051;-55
2023/04/25 00:21:57;;;;;;;15.18;6.63;;;;;;;14.49;38.42;99235.69;5066951;28;20033;-50
2023/04/25 00:24:23;;;;;;;15.13;5.10;;;;;;;14.50;38.40;99232.94;5066745;28;20052;-56
2023/04/25 00:26:49;;;;;;;14.25;4.93;;;;;;;14.52;38.41;99236.34;5063781;28;20039;-54
2023/04/25 00:29:15;;;;;;;11.85;5.70;;;;;;;14.43;38.48;99220.34;5037314;28;20092;-50
2023/04/25 00:31:41;;;;;;;11.50;5.50;;;;;;;14.51;38.78;99242.50;5061676;28;20044;-52
2023/04/25 00:34:08;;;;;;;10.25;5.18;;;;;;;14.46;39.11;99239.31;5055218;28;20108;-52
2023/04/25 00:36:36;;;;;;;12.00;5.28;;;;;;;14.44;39.25;99232.50;5087327;28;20028;-48
2023/04/25 00:39:04;;;;;;;18.13;5.68;;;;;;;14.46;39.11;99241.06;5088290;28;20047;-46
2023/04/25 00:41:30;;;;;;;13.48;5.70;;;;;;;14.47;39.11;99241.00;5088017;28;20044;-49
2023/04/25 00:43:56;;;;;;;13.48;5.00;;;;;;;14.51;39.23;99242.50;5103431;28;20055;-50
2023/04/25 00:46:22;;;;;;;11.68;5.60;;;;;;;14.40;39.25;99219.56;5086941;28;20584;-52
2023/04/25 00:48:49;;;;;;;8.52;5.10;;;;;;;14.47;39.38;99229.69;5094453;28;20058;-55
2023/04/25 00:51:18;;;;;;;10.77;5.05;;;;;;;14.52;39.62;99246.81;5069959;28;20035;-49
2023/04/25 00:53:45;;;;;;;11.15;5.07;;;;;;;14.53;39.64;99245.03;5103281;28;20573;-54
2023/04/25 00:56:11;;;;;;;10.25;5.00;;;;;;;14.42;39.39;99224.72;5103879;28;20040;-55
2023/04/25 00:58:37;;;;;;;13.63;5.78;;;;;;;14.49;39.59;99227.84;5087354;28;20035;-52
2023/04/25 01:01:03;;;;;;;9.70;4.88;;;;;;;14.62;40.00;99245.34;5069638;28;20813;-52
2023/04/25 01:03:32;;;;;;;10.82;5.00;;;;;;;14.62;39.59;99250.56;5051727;28;20044;-58
2023/04/25 01:05:58;;;;;;;11.40;4.90;;;;;;;14.66;39.79;99238.16;5099213;28;20047;-50
2023/04/25 01:08:27;;;;;;;12.68;4.20;;;;;;;14.65;39.57;99231.25;5066741;28;20792;-53
2023/04/25 01:10:54;;;;;;;9.43;4.25;;;;;;;14.76;39.37;99234.06;5085315;28;20039;-49
2023/04/25 01:13:19;;;;;;;7.25;4.03;;;;;;;14.82;39.18;99226.69;5083773;28;20064;-54
2023/04/25 01:15:45;;;;;;;8.38;3.47;;;;;;;14.89;39.16;99228.97;5085940;28;20058;-52
2023/04/25 01:18:12;;;;;;;10.00;4.32;;;;;;;14.90;39.12;99226.25;5101039;28;20106;-52
2023/04/25 01:20:38;;;;;;;8.20;4.38;;;;;;;14.92;39.15;99210.44;5083047;28;20155;-51
2023/04/25 01:23:04;;;;;;;8.93;4.38;;;;;;;14.95;39.19;99212.91;5086868;28;20051;-51
2023/04/25 01:25:31;;;;;;;12.73;4.50;;;;;;;14.86;39.14;99187.28;5084689;28;20541;-51
2023/04/25 01:27:58;;;;;;;12.90;4.13;;;;;;;15.02;39.25;99220.28;5103254;28;20054;-54
2023/04/25 01:30:29;;;;;;;9.77;4.72;;;;;;;15.05;39.12;99229.75;5052848;28;20174;-47
2023/04/25 01:32:56;;;;;;;10.88;5.13;;;;;;;14.93;39.15;99199.03;5049271;28;20040;-48
2023/04/25 01:35:23;;;;;;;10.35;4.90;;;;;;;15.01;39.39;99197.66;5074128;28;20036;-47
2023/04/25 01:37:53;;;;;;;10.07;4.90;;;;;;;15.08;39.27;99208.59;5069526;28;20067;-48
2023/04/25 01:40:20;;;;;;;13.05;4.80;;;;;;;15.22;39.24;99225.19;5051825;28;20036;-49
2023/04/25 01:42:46;;;;;;;10.10;3.95;;;;;;;14.94;39.03;99174.56;5069272;28;20074;-50
2023/04/25 01:45:13;;;;;;;9.57;4.50;;;;;;;15.17;38.97;99221.16;5087550;28;20109;-53
2023/04/25 01:47:43;;;;;;;9.48;3.95;;;;;;;15.05;38.84;99207.03;5087849;28;20499;-47
2023/04/25 01:50:11;;;;;;;9.20;4.45;;;;;;;15.08;39.27;99219.91;5069408;28;20066;-50
2023/04/25 01:52:37;;;;;;;10.98;4.32;;;;;;;15.01;39.45;99221.22;5103244;28;20723;-52
2023/04/25 01:55:04;;;;;;;9.07;4.65;;;;;;;14.98;39.89;99218.78;5103113;28;20048;-50
2023/04/25 01:57:32;;;;;;;9.95;4.45;;;;;;;14.93;39.63;99217.38;5083673;28;20040;-49
2023/04/25 02:00:02;;;;;;;8.60;4.15;;;;;;;14.74;39.89;99186.22;5101093;28;20380;-51
2023/04/25 02:02:41;;;;;;;8.82;4.93;;;;;;;14.94;39.99;99219.91;5072246;28;20051;-49
2023/04/25 02:05:19;;;;;;;10.95;4.70;;;;;;;14.95;40.12;99218.13;5087461;28;20093;-49
2023/04/25 02:07:45;;;;;;;10.32;4.00;;;;;;;14.97;40.10;99217.09;5066932;28;20068;-53
2023/04/25 02:10:10;;;;;;;6.90;4.47;;;;;;;15.07;39.83;99222.66;5087646;28;20086;-50
2023/04/25 02:12:49;;;;;;;8.93;4.22;;;;;;;15.06;40.37;99213.94;5067723;28;20043;-51
2023/04/25 02:15:41;;;;;;;11.50;3.80;;;;;;;14.92;40.27;99189.50;5096690;28;20419;-51
2023/04/25 02:18:16;;;;;;;7.13;3.95;;;;;;;15.05;40.44;99216.66;5069251;28;20047;-53
2023/04/25 02:20:43;;;;;;;15.00;4.20;;;;;;;15.02;40.40;99222.88;5063806;28;20470;-52
2023/04/25 02:23:09;;;;;;;10.05;4.60;;;;;;;14.86;40.55;99193.34;5067824;28;20609;-52
2023/04/25 02:25:36;;;;;;;9.23;4.47;;;;;;;14.91;40.72;99185.22;5052943;28;20051;-51
2023/04/25 02:28:02;;;;;;;9.32;4.65;;;;;;;15.07;40.75;99214.78;5072564;28;20032;-51
2023/04/25 02:30:29;;;;;;;9.15;4.43;;;;;;;15.09;41.07;99199.81;5054792;28;20050;-52
2023/04/25 02:32:55;;;;;;;7.68;4.32;;;;;;;15.09;40.98;99195.41;5089672;28;20044;-54
2023/04/25 02:35:21;;;;;;;11.65;4.72;;;;;;;15.02;41.15;99164.47;5072578;28;20036;-51
2023/04/25 02:37:47;;;;;;;11.95;4.07;;;;;;;15.19;40.93;99195.69;5090340;28;20039;-50
2023/04/25 02:40:13;;;;;;;8.82;4.30;;;;;;;15.13;41.01;99194.28;5072670;28;20542;-51
2023/04/25 02:42:39;;;;;;;9.05;4.65;;;;;;;15.04;41.19;99181.75;5072315;28;20040;-55
2023/04/25 02:45:05;;;;;;;11.05;4.13;;;;;;;15.20;41.10;99198.22;5090402;28;20074;-49
2023/04/25 02:47:31;;;;;;;10.52;3.85;;;;;;;15.18;41.14;99202.72;5098937;28;20507;-52
2023/04/25 02:49:58;;;;;;;10.65;4.32;;;;;;;15.16;41.27;99203.75;5070297;28;20119;-52
2023/04/25 02:52:24;;;;;;;8.35;3.90;;;;;;;15.12;41.38;99202.25;5084258;28;20044;-52
2023/04/25 02:55:00;;;;;;;11.00;3.90;;;;;;;15.04;41.29;99194.00;5090443;28;20071;-53
2023/04/25 02:57:30;;;;;;;7.40;4.20;;;;;;;15.26;40.95;99215.34;5085181;28;20096;-52
2023/04/25 02:59:56;;;;;;;16.10;4.35;;;;;;;15.43;40.84;99207.31;5105804;28;20040;-52
2023/04/25 03:02:22;;;;;;;13.63;3.92;;;;;;;15.58;40.82;99205.53;5087590;28;20046;-51
2023/04/25 03:04:48;;;;;;;6.03;3.85;;;;;;;15.60;40.69;99209.75;5053859;28;20503;-51
2023/04/25 03:07:14;;;;;;;11.65;4.20;;;;;;;15.59;40.55;99213.31;5104488;28;20070;-49
2023/04/25 03:09:40;;;;;;;8.70;3.67;;;;;;;15.65;40.51;99212.06;5071438;28;20047;-52
2023/04/25 03:12:06;;;;;;;7.68;3.85;;;;;;;15.61;40.62;99214.03;5102753;28;20519;-51
2023/04/25 03:14:33;;;;;;;10.07;4.40;;;;;;;15.41;40.74;99195.22;5087249;28;20043;-50
2023/04/25 03:16:59;;;;;;;7.15;3.90;;;;;;;15.55;40.82;99224.06;5086342;28;20044;-55
2023/04/25 03:19:26;;;;;;;7.30;3.60;;;;;;;15.51;40.59;99209.44;5092694;28;20032;-48
2023/04/25 03:21:52;;;;;;;10.15;4.43;;;;;;;15.47;40.88;99213.19;5069840;28;20547;-53
2023/04/25 03:24:19;;;;;;;7.88;3.90;;;;;;;15.53;40.78;99210.22;5088916;28;20040;-53
2023/04/25 03:26:45;;;;;;;9.95;4.55;;;;;;;15.60;40.92;99199.25;5088321;28;20058;-54
2023/04/25 03:29:11;;;;;;;7.10;3.80;;;;;;;15.68;40.57;99202.25;5088127;28;20093;-53
2023/04/25 03:31:39;;;;;;;12.98;4.40;;;;;;;15.75;40.42;99194.84;5065961;28;20475;-51
2023/04/25 03:34:05;;;;;;;6.32;3.60;;;;;;;15.77;40.69;99203.44;5085563;28;20380;-49
2023/04/25 03:36:32;;;;;;;10.25;4.07;;;;;;;15.74;40.66;99203.66;5087559;28;20419;-53
2023/04/25 03:38:59;;;;;;;15.52;4.30;;;;;;;15.85;40.50;99218.69;5037611;28;20063;-51
2023/04/25 03:41:25;;;;;;;14.35;4.47;;;;;;;15.88;40.48;99206.22;5104002;28;20117;-50
2023/04/25 03:43:55;;;;;;;9.27;4.90;;;;;;;16.07;40.62;99219.84;5097258;28;20683;-52
2023/04/25 03:46:21;;;;;;;15.07;4.40;;;;;;;16.11;40.54;99225.75;5103507;28;20040;-52
2023/04/25 03:48:48;;;;;;;12.73;3.90;;;;;;;16.17;40.06;99227.97;5071083;28;20039;-52
2023/04/25 03:51:21;;;;;;;12.27;4.07;;;;;;;16.32;40.06;99220.91;5100663;28;20044;-50
2023/04/25 03:53:47;;;;;;;10.73;3.92;;;;;;;16.37;39.82;99222.28;5103161;28;20040;-47
2023/04/25 03:56:20;;;;;;;9.25;3.80;;;;;;;16.35;39.51;99218.06;5069531;28;20574;-52
2023/04/25 03:58:51;;;;;;;9.35;4.80;;;;;;;16.27;39.97;99194.13;5104371;28;20487;-54
2023/04/25 04:01:20;;;;;;;9.90;3.97;;;;;;;16.45;39.90;99213.88;5066693;28;20060;-50
2023/04/25 04:03:47;;;;;;;11.35;4.28;;;;;;;16.25;39.84;99170.59;5079340;28;20046;-52
2023/04/25 04:06:13;;;;;;;13.30;4.60;;;;;;;16.44;39.45;99201.72;5069547;28;20043;-52
2023/04/25 04:08:42;;;;;;;18.00;4.47;;;;;;;16.51;39.79;99209.09;5095322;27;20036;-55
2023/04/25 04:11:10;;;;;;;9.55;4.22;;;;;;;16.58;39.72;99211.31;5102424;28;20036;-52
2023/04/25 04:13:37;;;;;;;15.25;4.13;;;;;;;16.51;39.75;99182.84;5086834;28;20052;-55
2023/04/25 04:16:04;;;;;;;11.50;4.05;;;;;;;16.73;39.75;99199.81;5087038;28;20050;-51
2023/04/25 04:18:30;;;;;;;14.20;4.43;;;;;;;16.73;39.98;99210.31;5104173;28;20040;-51
2023/04/25 04:20:58;;;;;;;10.27;4.22;;;;;;;16.75;39.57;99203.16;5070451;28;20510;-55
2023/04/25 04:23:26;;;;;;;9.30;4.18;;;;;;;16.75;39.76;99197.91;5069974;28;20827;-50
2023/04/25 04:25:53;;;;;;;17.88;5.38;;;;;;;16.57;40.02;99178.13;5087208;28;20530;-49
2023/04/25 04:28:38;;;;;;;10.63;4.70;;;;;;;16.50;40.01;99181.16;5088545;28;20043;-52
2023/04/25 04:31:23;;;;;;;14.50;5.53;;;;;;;16.57;40.01;99207.84;5052883;28;20510;-53
2023/04/25 04:33:51;;;;;;;16.75;6.10;;;;;;;16.53;40.41;99206.38;5063906;28;20519;-53
2023/04/25 04:36:21;;;;;;;12.63;5.60;;;;;;;16.58;40.43;99206.91;5070313;28;20690;-53
2023/04/25 04:38:48;;;;;;;20.30;7.03;;;;;;;16.53;40.89;99195.88;5069835;28;20077;-53
2023/04/25 04:41:23;;;;;;;18.65;6.38;;;;;;;16.44;40.89;99178.94;5070507;28;20620;-51
2023/04/25 04:44:10;;;;;;;23.75;6.47;;;;;;;16.62;40.81;99212.81;5094937;28;20047;-54
2023/04/25 04:47:06;;;;;;;16.13;6.38;;;;;;;16.42;40.81;99201.84;5063893;28;20519;-53
2023/04/25 04:49:51;;;;;;;15.25;6.93;;;;;;;16.08;40.70;99158.59;5101303;28;20427;-53
2023/04/25 04:52:31;;;;;;;18.00;6.72;;;;;;;16.20;40.99;99205.94;5049017;28;20423;-53
2023/04/25 04:55:24;;;;;;;15.00;7.65;;;;;;;16.09;40.98;99215.34;5088518;28;20066;-53
2023/04/25 04:58:07;;;;;;;22.42;7.82;;;;;;;15.92;41.36;99194.59;5070262;28;20511;-56
2023/04/25 05:00:56;;;;;;;20.15;6.95;;;;;;;16.06;41.46;99197.19;5044411;28;20047;-54
2023/04/25 05:03:52;;;;;;;20.00;7.80;;;;;;;16.29;41.29;99200.94;5055855;28;20063;-49
2023/04/25 05:06:40;;;;;;;;;;;;;;;16.44;41.30;99205.16;5045730;28;20493;-53
2023/04/25 05:09:15;;;;;;;16.52;8.82;;;;;;;16.40;41.31;99201.06;5069803;28;19935;-52
2023/04/25 05:12:10;;;;;;;22.05;9.05;;;;;;;16.47;41.65;99198.91;5025355;28;20076;-53
2023/04/25 05:14:55;;;;;;;13.90;7.45;;;;;;;16.44;41.57;99192.06;4987345;28;20045;-52
2023/04/25 05:17:40;;;;;;;15.60;7.50;;;;;;;16.49;41.51;99204.88;5017541;28;20037;-54
2023/04/25 05:20:32;;;;;;;15.57;7.22;;;;;;;16.49;41.38;99207.50;4991814;28;20056;-51
2023/04/25 05:23:13;;;;;;;13.93;7.80;;;;;;;16.49;41.38;99210.97;5019988;28;20041;-52
2023/04/25 05:25:42;;;;;;;17.90;7.68;;;;;;;16.63;41.14;99207.47;5029114;28;20091;-55
2023/04/25 05:28:28;;;;;;;13.55;6.40;;;;;;;16.46;40.78;99184.94;4999881;28;20067;-55
2023/04/25 05:31:17;;;;;;;11.52;6.57;;;;;;;16.63;40.86;99217.13;5026141;28;20073;-56
2023/04/25 05:33:54;;;;;;;12.48;7.40;;;;;;;16.77;40.40;99217.03;5008723;28;20115;-51
2023/04/25 05:36:22;;;;;;;16.63;6.28;;;;;;;16.86;40.13;99205.91;5025381;28;20054;-49
2023/04/25 05:38:48;;;;;;;15.07;6.82;;;;;;;16.97;40.05;99207.81;5024658;28;20037;-61
2023/04/25 05:41:14;;;;;;;15.80;6.25;;;;;;;16.94;39.73;99185.25;5025394;28;20045;-52
2023/04/25 05:43:57;;;;;;;15.05;6.90;;;;;;;17.12;39.52;99201.50;5017737;28;20054;-51
2023/04/25 05:46:49;;;;;;;13.57;6.30;;;;;;;17.28;39.49;99197.72;5008203;28;20049;-51
2023/04/25 05:49:30;;;;;;;16.90;6.78;;;;;;;17.58;39.17;99207.06;5057112;28;20155;-51
2023/04/25 05:51:56;;;;;;;12.20;5.88;;;;;;;17.64;39.20;99201.38;5101968;28;20040;-53
2023/04/25 05:54:48;;;;;;;14.57;6.45;;;;;;;17.88;38.73;99202.25;5051698;28;20049;-52
2023/04/25 05:57:26;;;;;;;13.80;5.97;;;;;;;18.13;38.06;99196.06;5054792;28;20048;-51
2023/04/25 05:59:53;;;;;;;11.65;6.18;;;;;;;18.10;37.59;99201.56;5086847;28;20036;-52
2023/04/25 06:02:21;;;;;;;17.77;6.38;;;;;;;18.01;37.48;99203.03;5076874;28;20126;-54
2023/04/25 06:04:49;;;;;;;11.18;5.20;;;;;;;17.90;37.36;99195.09;5078200;28;20039;-54
2023/04/25 06:07:15;;;;;;;12.23;5.70;;;;;;;17.92;37.25;99200.25;5086638;28;20404;-54
2023/04/25 06:09:41;;;;;;;12.10;6.22;;;;;;;17.78;37.08;99146.03;5106357;28;20047;-53
2023/04/25 06:12:09;;;;;;;7.80;5.28;;;;;;;18.05;36.96;99162.44;5073848;28;20054;-56
2023/04/25 06:14:35;;;;;;;14.27;6.20;;;;;;;18.42;36.33;99186.84;5083888;28;20109;-57
2023/04/25 06:17:06;;;;;;;11.35;5.32;;;;;;;18.99;35.46;99186.94;5075379;28;20044;-56
2023/04/25 06:19:33;;;;;;;12.95;5.50;;;;;;;19.53;33.87;99151.97;5054339;28;20020;-53
2023/04/25 06:21:59;;;;;;;10.77;4.88;;;;;;;20.41;32.97;99173.00;5072975;28;20044;-55
2023/04/25 06:24:25;;;;;;;5.95;3.80;;;;;;;21.36;31.33;99172.75;5066496;28;20047;-52
2023/04/25 06:26:51;;;;;;;6.97;4.25;;;;;;;21.79;29.99;99174.28;5116703;27;20507;-51
2023/04/25 06:29:17;;;;;;;6.10;4.60;;;;;;;22.76;29.13;99168.94;5084222;28;20042;-53
2023/04/25 06:31:43;;;;;;;8.68;5.07;;;;;;;23.55;28.09;99166.72;5085858;28;20031;-51
2023/04/25 06:34:09;;;;;;;13.70;5.25;;;;;;;24.41;26.88;99175.13;5082979;28;20045;-54
2023/04/25 06:36:38;;;;;;;17.60;4.72;;;;;;;25.18;25.83;99161.09;5084141;28;20047;-55
2023/04/25 06:39:08;;;;;;;10.02;4.82;;;;;;;26.47;24.92;99166.03;5076008;28;20039;-56
2023/04/25 06:41:35;;;;;;;13.50;4.80;;;;;;;27.56;23.57;99163.72;5065744;28;20040;-53
2023/04/25 06:44:05;;;;;;;10.70;5.10;;;;;;;28.19;22.53;99167.06;5078411;28;20498;-52
2023/04/25 06:46:50;;;;;;;12.25;4.10;;;;;;;29.30;21.58;99159.22;5060980;28;20044;-54
2023/04/25 06:49:16;;;;;;;8.00;4.53;;;;;;;30.11;20.66;99152.00;5099799;28;20101;-56
2023/04/25 06:51:42;;;;;;;9.45;5.40;;;;;;;30.95;19.95;99169.09;5099606;28;20142;-52
2023/04/25 06:54:08;;;;;;;11.60;4.88;;;;;;;31.79;19.20;99161.75;5077777;28;20066;-55
2023/04/25 06:56:53;;;;;;;11.27;4.50;;;;;;;32.59;18.38;99164.44;5087628;28;20511;-55
2023/04/25 06:59:20;;;;;;;7.03;3.95;;;;;;;33.38;17.34;99168.97;5082274;28;20089;-53
2023/04/25 07:01:46;;;;;;;9.05;4.70;;;;;;;32.75;17.13;99153.28;5083406;28;20043;-55
2023/04/25 07:04:19;;;;;;;11.68;5.00;;;;;;;33.43;16.60;99158.38;5097391;28;20039;-55
2023/04/25 07:06:51;;;;;;;8.68;5.00;;;;;;;34.39;16.30;99175.38;5053254;28;20052;-54
2023/04/25 07:09:21;;;;;;;8.40;4.50;;;;;;;34.17;15.56;99180.28;5105405;28;20165;-56
2023/04/25 07:11:49;;;;;;;12.60;5.55;;;;;;;33.60;15.75;99168.47;5042656;28;20131;-56
2023/04/25 07:14:15;;;;;;;6.80;4.22;;;;;;;33.56;15.95;99164.53;5077525;28;20093;-55
2023/04/25 07:16:41;;;;;;;11.20;4.80;;;;;;;33.52;15.97;99149.00;5080771;28;20584;-52
2023/04/25 07:19:08;;;;;;;10.00;6.05;;;;;;;34.29;15.40;99167.75;5077246;28;20056;-61
2023/04/25 07:21:36;;;;;;;9.18;5.25;;;;;;;34.35;15.59;99168.75;5082463;28;20198;-53
2023/04/25 07:24:03;;;;;;;12.05;5.13;;;;;;;35.54;14.82;99165.84;5056741;28;20063;-56
2023/04/25 07:26:33;;;;;;;13.23;5.75;;;;;;;36.50;14.62;99158.50;5106298;27;20108;-50
2023/04/25 07:29:22;;;;;;;10.80;6.18;;;;;;;37.25;13.94;99164.13;5086548;28;20442;-52
2023/04/25 07:31:49;;;;;;;11.80;6.30;;;;;;;37.79;13.51;99156.59;5078510;28;20050;-47
2023/04/25 07:34:15;;;;;;;11.50;7.25;;;;;;;38.07;13.11;99156.63;5094474;28;20052;-52
2023/04/25 07:36:41;;;;;;;11.10;6.05;;;;;;;38.21;13.17;99159.06;5069516;28;20047;-55
2023/04/25 07:39:10;;;;;;;13.43;5.57;;;;;;;37.43;13.32;99152.28;5088952;28;20125;-51
2023/04/25 07:41:37;;;;;;;14.65;5.32;;;;;;;37.01;13.59;99153.50;5093894;28;20040;-54
2023/04/25 07:44:03;;;;;;;12.40;4.43;;;;;;;37.85;12.69;99152.91;5084698;28;20157;-50
2023/04/25 07:46:31;;;;;;;9.07;4.90;;;;;;;38.33;12.56;99162.50;5072219;28;20047;-51
2023/04/25 07:48:57;;;;;;;13.60;5.50;;;;;;;38.83;12.18;99165.28;5079890;28;20039;-56
2023/04/25 07:51:23;;;;;;;11.73;4.97;;;;;;;39.31;11.90;99168.19;5063577;28;20047;-56
2023/04/25 07:53:51;;;;;;;12.80;5.22;;;;;;;39.55;12.04;99163.38;5059270;28;20071;-57
2023/04/25 07:56:17;;;;;;;10.02;5.85;;;;;;;39.84;12.02;99163.19;5091718;28;20570;-55
2023/04/25 07:58:47;;;;;;;11.75;5.68;;;;;;;39.95;11.91;99163.03;5066177;28;20044;-51
2023/04/25 08:01:14;;;;;;;16.45;5.82;;;;;;;39.75;11.60;99165.50;5071044;28;20084;-54
2023/04/25 08:03:47;;;;;;;12.27;5.47;;;;;;;38.04;12.85;99148.97;5055467;28;20040;-53
2023/04/25 08:06:20;;;;;;;11.20;5.18;;;;;;;38.61;12.53;99156.22;5062394;28;20055;-54
2023/04/25 08:09:12;;;;;;;9.13;4.40;;;;;;;38.85;12.04;99163.13;5085619;28;20048;-56
2023/04/25 08:11:41;;;;;;;10.88;4.20;;;;;;;39.02;12.00;99135.94;5101974;27;20585;-54
2023/04/25 08:14:09;;;;;;;6.88;3.97;;;;;;;37.94;12.37;99156.09;5074490;28;20042;-55
2023/04/25 08:16:37;;;;;;;;;;;;;;;34.52;14.42;99142.06;5079314;28;20437;-54
2023/04/25 08:19:03;;;;;;;9.48;4.80;;;;;;;34.72;14.75;99145.44;5088675;28;19969;-57
2023/04/25 08:21:29;;;;;;;7.22;4.50;;;;;;;36.24;13.58;99152.66;5078160;28;20047;-59
2023/04/25 08:23:58;;;;;;;9.52;4.45;;;;;;;37.69;12.75;99156.38;5090668;28;20104;-59
2023/04/25 08:26:29;;;;;;;10.93;4.47;;;;;;;37.33;12.93;99142.06;5062849;28;20044;-54
2023/04/25 08:28:55;;;;;;;6.90;4.05;;;;;;;34.61;14.67;99111.03;5057889;28;20142;-53
2023/04/25 08:31:22;;;;;;;13.60;4.60;;;;;;;32.59;15.64;99136.69;5069846;28;20040;-53
2023/04/25 08:33:54;;;;;;;18.17;6.55;;;;;;;31.00;17.13;99145.16;5103792;28;20035;-55
2023/04/25 08:36:32;;;;;;;11.35;4.03;;;;;;;28.88;18.45;99129.56;5079889;28;20044;-52
2023/04/25 08:38:59;;;;;;;13.45;6.88;;;;;;;28.23;19.35;99140.81;5057738;28;20047;-56
2023/04/25 08:41:26;;;;;;;10.68;5.47;;;;;;;27.89;20.00;99140.34;5080012;28;20040;-57
2023/04/25 08:43:53;;;;;;;16.58;6.50;;;;;;;28.27;19.80;99130.56;5062687;28;20097;-58
2023/04/25 08:46:19;;;;;;;10.30;6.45;;;;;;;29.93;18.80;99130.16;5061457;28;20039;-57
2023/04/25 08:49:25;;;;;;;11.00;7.45;;;;;;;32.93;16.63;99119.50;5075177;28;20031;-55
2023/04/25 08:51:52;;;;;;;15.18;5.40;;;;;;;34.61;15.67;99136.16;5056561;28;20127;-50
2023/04/25 08:54:25;;;;;;;15.48;5.90;;;;;;;35.56;14.90;99140.22;5072899;28;20075;-54
2023/04/25 08:56:52;;;;;;;13.50;5.00;;;;;;;36.40;14.12;99131.16;5079729;28;20138;-55
2023/04/25 08:59:18;;;;;;;6.30;4.18;;;;;;;36.93;13.61;99128.41;5101317;28;20063;-53
2023/04/25 09:01:45;;;;;;;7.37;4.90;;;;;;;37.26;13.83;99114.28;5101413;28;20047;-55
2023/04/25 09:04:12;;;;;;;11.38;5.00;;;;;;;37.26;13.72;99108.03;5073444;28;20656;-51
2023/04/25 09:06:39;;;;;;;14.25;4.45;;;;;;;37.20;13.68;99117.94;5099301;28;20043;-55
2023/04/25 09:09:07;;;;;;;6.70;4.47;;;;;;;36.11;14.27;99119.28;5097892;28;20595;-54
2023/04/25 09:11:35;;;;;;;10.00;4.82;;;;;;;37.29;13.72;99110.25;5046181;28;20740;-53
2023/04/25 09:14:12;;;;;;;9.43;4.35;;;;;;;37.45;12.93;99112.19;5109705;27;20040;-51
2023/04/25 09:16:57;;;;;;;9.77;5.05;;;;;;;37.56;13.26;99099.69;5071728;28;20154;-54
2023/04/25 09:19:40;;;;;;;12.70;5.07;;;;;;;38.11;12.88;99110.78;5066045;28;20048;-61
2023/04/25 09:22:21;;;;;;;10.20;4.65;;;;;;;36.08;13.79;99103.53;5056870;28;20088;-52
2023/04/25 09:24:48;;;;;;;10.23;4.30;;;;;;;35.85;14.03;99089.94;5058254;28;20101;-56
2023/04/25 09:27:22;;;;;;;8.00;4.93;;;;;;;36.06;14.33;99092.09;5074115;28;20043;-58
2023/04/25 09:29:59;;;;;;;12.90;4.72;;;;;;;36.15;14.18;99094.50;5088722;28;20052;-52
2023/04/25 09:32:26;;;;;;;9.63;4.03;;;;;;;34.65;15.03;99093.34;5070955;28;20523;-49
2023/04/25 09:34:56;;;;;;;8.82;3.97;;;;;;;33.75;15.79;99081.13;5088154;28;21195;-51
2023/04/25 09:37:27;;;;;;;10.88;4.50;;;;;;;32.56;16.46;99069.78;5081188;28;20342;-50
2023/04/25 09:40:15;;;;;;;12.50;4.88;;;;;;;32.19;17.21;99077.47;5091472;28;20044;-58
2023/04/25 09:43:25;;;;;;;12.40;4.47;;;;;;;32.55;16.95;99077.06;5075368;28;20154;-48
2023/04/25 09:45:53;;;;;;;9.93;4.45;;;;;;;33.33;16.38;99080.66;5081580;28;20055;-55
2023/04/25 09:48:20;;;;;;;;;;;;;;;33.85;16.18;99086.88;5050602;28;20461;-53
2023/04/25 09:51:03;;;;;;;8.75;4.63;;;;;;;33.85;16.10;99084.16;5076331;28;19951;-52
2023/04/25 09:53:31;;;;;;;8.65;4.05;;;;;;;33.55;16.24;99075.81;5091409;28;20087;-55
2023/04/25 09:56:10;;;;;;;7.50;4.20;;;;;;;34.57;15.41;99082.81;5072462;28;20519;-49
2023/04/25 09:58:37;;;;;;;6.72;4.28;;;;;;;35.02;15.10;99088.81;5091844;28;20185;-51
2023/04/25 10:01:07;;;;;;;22.40;7.97;;;;;;;35.95;14.41;99087.50;5077885;28;20483;-47
2023/04/25 10:03:43;;;;;;;7.57;4.68;;;;;;;34.56;15.02;99063.09;5063732;28;20176;-54
2023/04/25 10:06:33;;;;;;;6.90;4.88;;;;;;;35.04;15.18;99067.81;5051483;28;20075;-57
2023/04/25 10:09:00;;;;;;;6.55;5.55;;;;;;;36.04;14.85;99052.78;5073875;28;20055;-60
2023/04/25 10:11:26;;;;;;;8.52;4.93;;;;;;;35.86;14.59;99048.25;5091063;28;20047;-54
2023/04/25 10:13:52;;;;;;;11.10;5.03;;;;;;;35.19;14.59;99062.88;5093455;28;20078;-54
2023/04/25 10:16:18;;;;;;;7.63;5.00;;;;;;;33.22;16.01;99059.78;5074326;28;20047;-50
2023/04/25 10:18:44;;;;;;;8.85;4.75;;;;;;;32.70;16.62;99061.53;5074555;28;20111;-57
2023/04/25 10:21:11;;;;;;;8.10;5.05;;;;;;;31.85;17.21;99054.22;5075726;28;20040;-54
2023/04/25 10:23:37;;;;;;;7.07;4.80;;;;;;;30.98;17.82;99056.78;5105544;28;20123;-55
2023/04/25 10:26:04;;;;;;;6.25;4.85;;;;;;;31.39;17.61;99051.41;5087223;28;20046;-55
2023/04/25 10:28:56;;;;;;;15.57;5.07;;;;;;;33.02;16.36;99051.72;5106460;28;20156;-52
2023/04/25 10:31:22;;;;;;;10.32;4.50;;;;;;;35.12;15.01;99054.00;5072162;28;20593;-53
2023/04/25 10:33:48;;;;;;;7.63;4.20;;;;;;;36.17;14.67;99046.38;5090752;28;20044;-58
2023/04/25 10:36:18;;;;;;;7.60;4.30;;;;;;;36.69;13.75;99041.97;5091065;28;20044;-54
2023/04/25 10:38:45;;;;;;;10.65;4.55;;;;;;;34.96;14.58;99046.50;5055323;28;20039;-51
2023/04/25 10:41:12;;;;;;;6.18;3.95;;;;;;;33.85;15.56;99035.63;5089271;28;20050;-51
2023/04/25 10:43:44;;;;;;;8.13;4.28;;;;;;;32.41;16.48;99032.34;5066188;28;20055;-56
2023/04/25 10:46:17;;;;;;;7.55;3.70;;;;;;;32.85;16.30;99007.44;5070253;28;20044;-54
2023/04/25 10:48:50;;;;;;;8.60;4.47;;;;;;;32.98;16.31;99022.72;5090323;28;20040;-54
2023/04/25 10:51:21;;;;;;;8.85;4.18;;;;;;;32.21;16.82;99024.28;5071260;28;20067;-53
2023/04/25 10:53:57;;;;;;;7.45;4.00;;;;;;;33.10;16.25;99026.41;5072240;28;20040;-53
2023/04/25 10:56:26;;;;;;;12.60;5.22;;;;;;;34.03;15.80;99017.63;5072029;28;20146;-55
2023/04/25 10:59:12;;;;;;;8.00;4.57;;;;;;;35.50;14.74;99008.59;5090184;28;20723;-53
2023/04/25 11:01:51;;;;;;;8.98;4.32;;;;;;;35.35;14.41;99015.47;5084824;28;20157;-58
2023/04/25 11:04:36;;;;;;;7.68;3.97;;;;;;;34.50;15.00;99009.13;5072608;28;20043;-54
2023/04/25 11:07:11;;;;;;;5.88;3.38;;;;;;;34.51;14.76;99005.38;5071928;28;20064;-58
2023/04/25 11:09:41;;;;;;;10.00;3.40;;;;;;;34.72;14.70;98996.88;5071757;28;20044;-57
2023/04/25 11:12:09;;;;;;;11.25;3.50;;;;;;;34.74;14.94;98992.94;5090037;28;20036;-53
2023/04/25 11:14:35;;;;;;;;;;;;;;;34.57;14.98;98997.22;5106493;28;20043;-56
2023/04/25 11:17:05;;;;;;;6.00;3.55;;;;;;;33.12;15.98;98990.16;5086625;28;19923;-57
2023/04/25 11:19:31;;;;;;;7.35;3.38;;;;;;;32.58;16.49;98990.50;5071608;28;20090;-58
2023/04/25 11:21:59;;;;;;;7.68;4.40;;;;;;;32.50;16.56;98976.44;5071980;28;20078;-55
2023/04/25 11:24:29;;;;;;;12.68;3.15;;;;;;;33.31;15.89;98976.81;5110570;28;20042;-54
2023/04/25 11:26:55;;;;;;;5.15;3.70;;;;;;;34.03;15.23;98954.75;5087958;28;20036;-57
2023/04/25 11:29:28;;;;;;;7.90;3.13;;;;;;;34.71;14.73;98976.31;5058882;28;20044;-54
2023/04/25 11:31:57;;;;;;;5.47;3.10;;;;;;;34.83;14.66;98978.06;5067090;28;20044;-59
2023/04/25 11:34:25;;;;;;;5.70;3.10;;;;;;;34.40;14.74;98972.69;5053820;28;20036;-56
2023/04/25 11:36:54;;;;;;;5.82;2.50;;;;;;;33.39;14.49;98945.06;5089856;28;20538;-54
2023/04/25 11:39:21;;;;;;;8.30;2.90;;;;;;;32.18;15.43;98951.25;5072371;28;20445;-54
2023/04/25 11:41:47;;;;;;;5.88;2.55;;;;;;;31.21;15.69;98961.63;5071178;28;20039;-58
2023/04/25 11:44:17;;;;;;;6.85;2.90;;;;;;;30.08;16.90;98959.34;5089727;28;20641;-54
2023/04/25 11:46:43;;;;;;;8.50;2.90;;;;;;;29.55;17.43;98945.47;5071738;28;20150;-54